sensor_id;sensor_type;location;lat;lon;timestamp;pressure;altitude;pressure_sealevel;temperature;humidity
33454;BME280;39400;49.744;7.012;2023-02-18T00:00:15;96835.13;;;7.97;100.00
33454;BME280;39400;49.744;7.012;2023-02-18T00:02:42;96840.94;;;7.96;100.00
33454;BME280;39400;49.744;7.012;2023-02-18T00:05:07;96847.72;;;7.86;100.00
33454;BME280;39400;49.744;7.012;2023-02-18T00:07:37;96832.91;;;7.87;100.00
33454;BME280;39400;49.744;7.012;2023-02-18T00:10:05;96833.78;;;7.91;100.00
33454;BME280;39400;49.744;7.012;2023-02-18T00:12:31;96837.06;;;7.81;100.00
33454;BME280;39400;49.744;7.012;2023-02-18T00:14:57;96841.38;;;7.82;100.00
33454;BME280;39400;49.744;7.012;2023-02-18T00:17:22;96828.22;;;7.88;100.00
33454;BME280;39400;49.744;7.012;2023-02-18T00:19:48;96825.81;;;7.86;100.00
33454;BME280;39400;49.744;7.012;2023-02-18T00:22:14;96842.91;;;7.79;100.00
33454;BME280;39400;49.744;7.012;2023-02-18T00:24:39;96841.81;;;7.68;100.00
33454;BME280;39400;49.744;7.012;2023-02-18T00:27:04;96837.88;;;7.66;100.00
33454;BME280;39400;49.744;7.012;2023-02-18T00:29:31;96849.44;;;7.59;100.00
33454;BME280;39400;49.744;7.012;2023-02-18T00:31:56;96836.97;;;7.61;100.00
33454;BME280;39400;49.744;7.012;2023-02-18T00:34:21;96837.66;;;7.58;100.00
33454;BME280;39400;49.744;7.012;2023-02-18T00:36:47;96836.53;;;7.59;100.00
33454;BME280;39400;49.744;7.012;2023-02-18T00:39:12;96832.41;;;7.66;100.00
33454;BME280;39400;49.744;7.012;2023-02-18T00:41:38;96849.34;;;7.55;100.00
33454;BME280;39400;49.744;7.012;2023-02-18T00:44:04;96843.13;;;7.58;100.00
33454;BME280;39400;49.744;7.012;2023-02-18T00:46:30;96839.34;;;7.63;100.00
33454;BME280;39400;49.744;7.012;2023-02-18T00:48:55;96840.84;;;7.60;100.00
33454;BME280;39400;49.744;7.012;2023-02-18T00:51:21;96852.16;;;7.59;100.00
33454;BME280;39400;49.744;7.012;2023-02-18T00:53:47;96849.06;;;7.60;100.00
33454;BME280;39400;49.744;7.012;2023-02-18T00:56:13;96849.59;;;7.66;100.00
33454;BME280;39400;49.744;7.012;2023-02-18T00:58:41;96845.09;;;7.74;100.00
33454;BME280;39400;49.744;7.012;2023-02-18T01:01:08;96835.56;;;7.68;100.00
33454;BME280;39400;49.744;7.012;2023-02-18T01:03:36;96833.28;;;7.70;100.00
33454;BME280;39400;49.744;7.012;2023-02-18T01:06:02;96839.34;;;7.63;100.00
33454;BME280;39400;49.744;7.012;2023-02-18T01:08:28;96833.97;;;7.67;100.00
33454;BME280;39400;49.744;7.012;2023-02-18T01:10:55;96832.19;;;7.58;100.00
33454;BME280;39400;49.744;7.012;2023-02-18T01:13:21;96843.13;;;7.58;100.00
33454;BME280;39400;49.744;7.012;2023-02-18T01:15:46;96840.94;;;7.64;100.00
33454;BME280;39400;49.744;7.012;2023-02-18T01:18:12;96833.53;;;7.65;100.00
33454;BME280;39400;49.744;7.012;2023-02-18T01:20:40;96841.03;;;7.68;100.00
33454;BME280;39400;49.744;7.012;2023-02-18T01:23:07;96844.47;;;7.65;100.00
33454;BME280;39400;49.744;7.012;2023-02-18T01:25:33;96833.97;;;7.67;100.00
33454;BME280;39400;49.744;7.012;2023-02-18T01:28:00;96828.59;;;7.70;100.00
33454;BME280;39400;49.744;7.012;2023-02-18T01:30:25;96828.22;;;7.72;100.00
33454;BME280;39400;49.744;7.012;2023-02-18T01:32:51;96826.63;;;7.71;100.00
33454;BME280;39400;49.744;7.012;2023-02-18T01:35:18;96811.53;;;7.77;100.00
33454;BME280;39400;49.744;7.012;2023-02-18T01:37:45;96817.28;;;7.72;100.00
33454;BME280;39400;49.744;7.012;2023-02-18T01:40:12;96812.25;;;7.74;100.00
33454;BME280;39400;49.744;7.012;2023-02-18T01:42:39;96817.56;;;7.67;100.00
33454;BME280;39400;49.744;7.012;2023-02-18T01:48:05;96798.09;;;7.72;100.00
33454;BME280;39400;49.744;7.012;2023-02-18T01:50:34;96789.09;;;7.71;100.00
33454;BME280;39400;49.744;7.012;2023-02-18T01:53:00;96788.03;;;7.76;100.00
33454;BME280;39400;49.744;7.012;2023-02-18T01:55:29;96773.94;;;7.74;100.00
33454;BME280;39400;49.744;7.012;2023-02-18T01:57:55;96773.84;;;7.70;100.00
33454;BME280;39400;49.744;7.012;2023-02-18T02:00:20;96767.66;;;7.73;100.00
33454;BME280;39400;49.744;7.012;2023-02-18T02:02:47;96766.88;;;7.73;100.00
33454;BME280;39400;49.744;7.012;2023-02-18T02:05:13;96760.66;;;7.76;100.00
33454;BME280;39400;49.744;7.012;2023-02-18T02:07:40;96760.94;;;7.71;100.00
33454;BME280;39400;49.744;7.012;2023-02-18T02:10:08;96756.19;;;7.68;100.00
33454;BME280;39400;49.744;7.012;2023-02-18T02:15:48;96752.56;;;7.63;100.00
33454;BME280;39400;49.744;7.012;2023-02-18T02:29:23;96746.47;;;7.54;100.00
33454;BME280;39400;49.744;7.012;2023-02-18T02:43:00;96718.16;;;7.47;100.00
33454;BME280;39400;49.744;7.012;2023-02-18T02:50:46;96717.44;;;7.34;100.00
33454;BME280;39400;49.744;7.012;2023-02-18T02:53:24;96716.66;;;7.33;100.00
33454;BME280;39400;49.744;7.012;2023-02-18T02:55:51;96704.91;;;7.33;100.00
33454;BME280;39400;49.744;7.012;2023-02-18T02:58:18;96712.78;;;7.34;100.00
33454;BME280;39400;49.744;7.012;2023-02-18T03:09:38;96723.66;;;7.31;100.00
33454;BME280;39400;49.744;7.012;2023-02-18T03:17:41;96729.13;;;7.31;100.00
33454;BME280;39400;49.744;7.012;2023-02-18T03:20:34;96732.19;;;7.29;100.00
33454;BME280;39400;49.744;7.012;2023-02-18T03:23:06;96718.19;;;7.31;100.00
33454;BME280;39400;49.744;7.012;2023-02-18T03:25:34;96724.53;;;7.35;100.00
33454;BME280;39400;49.744;7.012;2023-02-18T03:28:06;96725.06;;;7.25;100.00
33454;BME280;39400;49.744;7.012;2023-02-18T03:30:37;96727.34;;;7.23;100.00
33454;BME280;39400;49.744;7.012;2023-02-18T03:33:07;96711.00;;;7.26;100.00
33454;BME280;39400;49.744;7.012;2023-02-18T03:35:35;96700.84;;;7.27;100.00
33454;BME280;39400;49.744;7.012;2023-02-18T03:38:15;96697.88;;;7.32;100.00
33454;BME280;39400;49.744;7.012;2023-02-18T03:40:43;96693.09;;;7.29;100.00
33454;BME280;39400;49.744;7.012;2023-02-18T03:43:09;96698.13;;;7.27;100.00
33454;BME280;39400;49.744;7.012;2023-02-18T03:45:34;96691.53;;;7.28;100.00
33454;BME280;39400;49.744;7.012;2023-02-18T03:47:59;96701.31;;;7.29;100.00
33454;BME280;39400;49.744;7.012;2023-02-18T03:50:25;96692.66;;;7.27;100.00
33454;BME280;39400;49.744;7.012;2023-02-18T03:52:50;96694.97;;;7.25;100.00
33454;BME280;39400;49.744;7.012;2023-02-18T03:55:15;96687.00;;;7.20;100.00
33454;BME280;39400;49.744;7.012;2023-02-18T03:57:41;96676.44;;;7.18;100.00
33454;BME280;39400;49.744;7.012;2023-02-18T04:00:07;96691.06;;;7.10;100.00
33454;BME280;39400;49.744;7.012;2023-02-18T04:02:38;96702.13;;;7.13;100.00
33454;BME280;39400;49.744;7.012;2023-02-18T04:05:04;96688.88;;;7.15;100.00
33454;BME280;39400;49.744;7.012;2023-02-18T04:07:50;96689.66;;;7.16;100.00
33454;BME280;39400;49.744;7.012;2023-02-18T04:10:35;96686.50;;;7.14;100.00
33454;BME280;39400;49.744;7.012;2023-02-18T04:13:01;96673.25;;;7.16;100.00
33454;BME280;39400;49.744;7.012;2023-02-18T04:15:26;96681.38;;;7.12;100.00
33454;BME280;39400;49.744;7.012;2023-02-18T04:17:52;96675.66;;;7.18;100.00
33454;BME280;39400;49.744;7.012;2023-02-18T04:20:17;96680.31;;;7.17;100.00
33454;BME280;39400;49.744;7.012;2023-02-18T04:22:43;96676.34;;;7.14;100.00
33454;BME280;39400;49.744;7.012;2023-02-18T04:25:08;96673.94;;;7.13;100.00
33454;BME280;39400;49.744;7.012;2023-02-18T04:27:34;96656.41;;;7.14;100.00
33454;BME280;39400;49.744;7.012;2023-02-18T04:29:59;96673.88;;;7.09;100.00
33454;BME280;39400;49.744;7.012;2023-02-18T04:32:25;96669.56;;;7.08;100.00
33454;BME280;39400;49.744;7.012;2023-02-18T04:34:50;96664.97;;;7.12;100.00
33454;BME280;39400;49.744;7.012;2023-02-18T04:37:15;96657.28;;;7.02;100.00
33454;BME280;39400;49.744;7.012;2023-02-18T04:39:41;96668.69;;;7.04;100.00
33454;BME280;39400;49.744;7.012;2023-02-18T04:42:06;96661.63;;;7.03;100.00
33454;BME280;39400;49.744;7.012;2023-02-18T04:44:32;96681.56;;;7.04;100.00
33454;BME280;39400;49.744;7.012;2023-02-18T04:46:57;96691.69;;;7.03;100.00
33454;BME280;39400;49.744;7.012;2023-02-18T04:49:22;96678.28;;;6.98;100.00
33454;BME280;39400;49.744;7.012;2023-02-18T04:51:48;96674.31;;;6.96;100.00
33454;BME280;39400;49.744;7.012;2023-02-18T04:54:13;96664.97;;;6.97;100.00
33454;BME280;39400;49.744;7.012;2023-02-18T04:56:38;96668.13;;;6.99;100.00
33454;BME280;39400;49.744;7.012;2023-02-18T04:59:04;96666.63;;;7.01;100.00
33454;BME280;39400;49.744;7.012;2023-02-18T05:01:29;96673.41;;;6.91;100.00
33454;BME280;39400;49.744;7.012;2023-02-18T05:03:54;96666.47;;;6.94;100.00
33454;BME280;39400;49.744;7.012;2023-02-18T05:06:38;96666.38;;;6.90;100.00
33454;BME280;39400;49.744;7.012;2023-02-18T05:09:03;96666.81;;;6.93;100.00
33454;BME280;39400;49.744;7.012;2023-02-18T05:11:29;96692.91;;;6.90;100.00
33454;BME280;39400;49.744;7.012;2023-02-18T05:13:54;96654.81;;;6.97;100.00
33454;BME280;39400;49.744;7.012;2023-02-18T05:16:19;96662.56;;;6.95;100.00
33454;BME280;39400;49.744;7.012;2023-02-18T05:18:45;96656.22;;;6.91;100.00
33454;BME280;39400;49.744;7.012;2023-02-18T05:21:10;96665.59;;;6.90;100.00
33454;BME280;39400;49.744;7.012;2023-02-18T05:23:35;96667.06;;;6.87;100.00
33454;BME280;39400;49.744;7.012;2023-02-18T05:26:01;96669.44;;;6.89;100.00
33454;BME280;39400;49.744;7.012;2023-02-18T05:28:26;96669.03;;;6.87;100.00
33454;BME280;39400;49.744;7.012;2023-02-18T05:30:52;96678.28;;;6.82;100.00
33454;BME280;39400;49.744;7.012;2023-02-18T05:33:17;96668.13;;;6.83;100.00
33454;BME280;39400;49.744;7.012;2023-02-18T05:35:42;96664.72;;;6.86;100.00
33454;BME280;39400;49.744;7.012;2023-02-18T05:38:08;96648.31;;;6.86;100.00
33454;BME280;39400;49.744;7.012;2023-02-18T05:40:34;96651.75;;;6.83;100.00
33454;BME280;39400;49.744;7.012;2023-02-18T05:42:59;96655.59;;;6.82;100.00
33454;BME280;39400;49.744;7.012;2023-02-18T05:45:25;96646.97;;;6.80;100.00
33454;BME280;39400;49.744;7.012;2023-02-18T05:47:50;96643.38;;;6.76;100.00
33454;BME280;39400;49.744;7.012;2023-02-18T05:50:16;96646.09;;;6.76;100.00
33454;BME280;39400;49.744;7.012;2023-02-18T05:52:41;96624.66;;;6.78;100.00
33454;BME280;39400;49.744;7.012;2023-02-18T05:55:07;96639.56;;;6.80;100.00
33454;BME280;39400;49.744;7.012;2023-02-18T05:57:32;96625.34;;;6.75;100.00
33454;BME280;39400;49.744;7.012;2023-02-18T05:59:57;96629.69;;;6.76;100.00
33454;BME280;39400;49.744;7.012;2023-02-18T06:02:23;96621.13;;;6.77;100.00
33454;BME280;39400;49.744;7.012;2023-02-18T06:04:48;96623.06;;;6.77;100.00
33454;BME280;39400;49.744;7.012;2023-02-18T06:07:13;96630.81;;;6.75;100.00
33454;BME280;39400;49.744;7.012;2023-02-18T06:09:39;96610.38;;;6.69;100.00
33454;BME280;39400;49.744;7.012;2023-02-18T06:12:04;96605.81;;;6.73;100.00
33454;BME280;39400;49.744;7.012;2023-02-18T06:14:30;96599.88;;;6.71;100.00
33454;BME280;39400;49.744;7.012;2023-02-18T06:16:55;96606.13;;;6.71;100.00
33454;BME280;39400;49.744;7.012;2023-02-18T06:19:21;96602.78;;;6.78;100.00
33454;BME280;39400;49.744;7.012;2023-02-18T06:21:47;96611.97;;;6.70;100.00
33454;BME280;39400;49.744;7.012;2023-02-18T06:24:12;96610.38;;;6.69;100.00
33454;BME280;39400;49.744;7.012;2023-02-18T06:26:37;96611.19;;;6.69;100.00
33454;BME280;39400;49.744;7.012;2023-02-18T06:29:03;96601.91;;;6.74;100.00
33454;BME280;39400;49.744;7.012;2023-02-18T06:31:28;96606.22;;;6.75;100.00
33454;BME280;39400;49.744;7.012;2023-02-18T06:33:54;96606.69;;;6.77;100.00
33454;BME280;39400;49.744;7.012;2023-02-18T06:36:19;96619.88;;;6.75;100.00
33454;BME280;39400;49.744;7.012;2023-02-18T06:38:45;96601.81;;;6.70;100.00
33454;BME280;39400;49.744;7.012;2023-02-18T06:41:11;96603.31;;;6.67;100.00
33454;BME280;39400;49.744;7.012;2023-02-18T06:43:37;96627.47;;;6.65;100.00
33454;BME280;39400;49.744;7.012;2023-02-18T06:46:04;96602.97;;;6.69;100.00
33454;BME280;39400;49.744;7.012;2023-02-18T06:48:29;96606.50;;;6.70;100.00
33454;BME280;39400;49.744;7.012;2023-02-18T06:50:55;96620.41;;;6.64;100.00
33454;BME280;39400;49.744;7.012;2023-02-18T06:53:20;96607.19;;;6.66;100.00
33454;BME280;39400;49.744;7.012;2023-02-18T06:55:46;96599.47;;;6.69;100.00
33454;BME280;39400;49.744;7.012;2023-02-18T06:58:12;96618.84;;;6.63;100.00
33454;BME280;39400;49.744;7.012;2023-02-18T07:00:37;96607.91;;;6.63;100.00
33454;BME280;39400;49.744;7.012;2023-02-18T07:03:03;96622.72;;;6.62;100.00
33454;BME280;39400;49.744;7.012;2023-02-18T07:05:29;96612.66;;;6.66;100.00
33454;BME280;39400;49.744;7.012;2023-02-18T07:07:54;96604.94;;;6.69;100.00
33454;BME280;39400;49.744;7.012;2023-02-18T07:10:20;96607.91;;;6.63;100.00
33454;BME280;39400;49.744;7.012;2023-02-18T07:12:45;96610.63;;;6.63;100.00
33454;BME280;39400;49.744;7.012;2023-02-18T07:15:11;96615.84;;;6.69;100.00
33454;BME280;39400;49.744;7.012;2023-02-18T07:17:36;96623.69;;;6.70;100.00
33454;BME280;39400;49.744;7.012;2023-02-18T07:20:02;96609.66;;;6.72;100.00
33454;BME280;39400;49.744;7.012;2023-02-18T07:22:28;96616.72;;;6.73;100.00
33454;BME280;39400;49.744;7.012;2023-02-18T07:24:53;96610.81;;;6.71;100.00
33454;BME280;39400;49.744;7.012;2023-02-18T07:27:19;96612.66;;;6.66;100.00
33454;BME280;39400;49.744;7.012;2023-02-18T07:29:45;96618.13;;;6.66;100.00
33454;BME280;39400;49.744;7.012;2023-02-18T07:32:12;96618.13;;;6.66;100.00
33454;BME280;39400;49.744;7.012;2023-02-18T07:34:38;96608.00;;;6.67;100.00
33454;BME280;39400;49.744;7.012;2023-02-18T07:37:03;96605.63;;;6.65;100.00
33454;BME280;39400;49.744;7.012;2023-02-18T07:39:29;96609.47;;;6.64;100.00
33454;BME280;39400;49.744;7.012;2023-02-18T07:41:54;96587.72;;;6.68;100.00
33454;BME280;39400;49.744;7.012;2023-02-18T07:44:22;96591.41;;;6.60;100.00
33454;BME280;39400;49.744;7.012;2023-02-18T07:46:47;96599.25;;;6.61;100.00
33454;BME280;39400;49.744;7.012;2023-02-18T07:49:13;96592.22;;;6.60;100.00
33454;BME280;39400;49.744;7.012;2023-02-18T07:51:38;96589.94;;;6.62;100.00
33454;BME280;39400;49.744;7.012;2023-02-18T07:54:03;96585.25;;;6.63;100.00
33454;BME280;39400;49.744;7.012;2023-02-18T07:56:29;96599.47;;;6.69;100.00
33454;BME280;39400;49.744;7.012;2023-02-18T07:58:54;96597.44;;;6.65;100.00
33454;BME280;39400;49.744;7.012;2023-02-18T08:01:19;96597.59;;;6.73;100.00
33454;BME280;39400;49.744;7.012;2023-02-18T08:03:44;96593.25;;;6.72;100.00
33454;BME280;39400;49.744;7.012;2023-02-18T08:06:20;96591.94;;;6.81;100.00
33454;BME280;39400;49.744;7.012;2023-02-18T08:08:46;96573.09;;;6.76;100.00
33454;BME280;39400;49.744;7.012;2023-02-18T08:11:11;96598.72;;;6.72;100.00
33454;BME280;39400;49.744;7.012;2023-02-18T08:13:37;96568.41;;;6.77;100.00
33454;BME280;39400;49.744;7.012;2023-02-18T08:16:02;96593.44;;;6.79;100.00
33454;BME280;39400;49.744;7.012;2023-02-18T08:18:27;96582.50;;;6.79;100.00
33454;BME280;39400;49.744;7.012;2023-02-18T08:20:53;96578.56;;;6.76;100.00
33454;BME280;39400;49.744;7.012;2023-02-18T08:23:19;96590.28;;;6.77;100.00
33454;BME280;39400;49.744;7.012;2023-02-18T08:25:47;96597.31;;;6.78;100.00
33454;BME280;39400;49.744;7.012;2023-02-18T08:28:13;96610.56;;;6.76;100.00
33454;BME280;39400;49.744;7.012;2023-02-18T08:30:46;96597.00;;;6.79;100.00
33454;BME280;39400;49.744;7.012;2023-02-18T08:33:12;96612.16;;;6.77;100.00
33454;BME280;39400;49.744;7.012;2023-02-18T08:35:38;96622.28;;;6.76;100.00
33454;BME280;39400;49.744;7.012;2023-02-18T08:38:03;96630.22;;;6.81;100.00
33454;BME280;39400;49.744;7.012;2023-02-18T08:40:28;96614.59;;;6.82;100.00
33454;BME280;39400;49.744;7.012;2023-02-18T08:42:54;96645.56;;;6.86;100.00
33454;BME280;39400;49.744;7.012;2023-02-18T08:45:19;96647.84;;;6.84;100.00
33454;BME280;39400;49.744;7.012;2023-02-18T08:47:44;96633.31;;;6.80;100.00
33454;BME280;39400;49.744;7.012;2023-02-18T08:50:10;96626.22;;;6.79;100.00
33454;BME280;39400;49.744;7.012;2023-02-18T08:52:35;96647.50;;;6.85;100.00
33454;BME280;39400;49.744;7.012;2023-02-18T08:55:01;96625.53;;;6.82;100.00
33454;BME280;39400;49.744;7.012;2023-02-18T08:57:27;96636.91;;;6.84;100.00
33454;BME280;39400;49.744;7.012;2023-02-18T08:59:53;96630.28;;;6.85;100.00
33454;BME280;39400;49.744;7.012;2023-02-18T09:02:18;96637.78;;;6.88;100.00
33454;BME280;39400;49.744;7.012;2023-02-18T09:04:43;96627.22;;;6.86;100.00
33454;BME280;39400;49.744;7.012;2023-02-18T09:07:09;96629.59;;;6.88;100.00
33454;BME280;39400;49.744;7.012;2023-02-18T09:09:34;96624.91;;;6.88;100.00
33454;BME280;39400;49.744;7.012;2023-02-18T09:11:59;96631.91;;;6.86;100.00
33454;BME280;39400;49.744;7.012;2023-02-18T09:14:25;96645.66;;;6.89;100.00
33454;BME280;39400;49.744;7.012;2023-02-18T09:16:50;96656.06;;;6.84;100.00
33454;BME280;39400;49.744;7.012;2023-02-18T09:19:16;96651.03;;;6.86;100.00
33454;BME280;39400;49.744;7.012;2023-02-18T09:21:42;96645.28;;;6.91;100.00
33454;BME280;39400;49.744;7.012;2023-02-18T09:24:07;96646.97;;;6.96;100.00
33454;BME280;39400;49.744;7.012;2023-02-18T09:26:33;96637.56;;;6.93;100.00
33454;BME280;39400;49.744;7.012;2023-02-18T09:28:58;96645.75;;;6.93;100.00
33454;BME280;39400;49.744;7.012;2023-02-18T09:31:25;96669.19;;;6.94;100.00
33454;BME280;39400;49.744;7.012;2023-02-18T09:33:56;96633.28;;;6.96;100.00
33454;BME280;39400;49.744;7.012;2023-02-18T09:36:22;96614.06;;;6.92;100.00
33454;BME280;39400;49.744;7.012;2023-02-18T09:38:48;96632.59;;;6.83;100.00
33454;BME280;39400;49.744;7.012;2023-02-18T09:41:41;96645.13;;;6.84;100.00
33454;BME280;39400;49.744;7.012;2023-02-18T09:44:27;96640.34;;;6.81;100.00
33454;BME280;39400;49.744;7.012;2023-02-18T09:47:05;96626.41;;;6.70;100.00
33454;BME280;39400;49.744;7.012;2023-02-18T09:49:38;96645.81;;;6.81;100.00
33454;BME280;39400;49.744;7.012;2023-02-18T09:52:15;96641.31;;;6.73;100.00
33454;BME280;39400;49.744;7.012;2023-02-18T09:54:41;96649.25;;;6.78;100.00
33454;BME280;39400;49.744;7.012;2023-02-18T09:57:17;96656.06;;;6.84;100.00
33454;BME280;39400;49.744;7.012;2023-02-18T09:59:48;96657.47;;;6.94;100.00
33454;BME280;39400;49.744;7.012;2023-02-18T10:02:16;96648.13;;;6.95;100.00
33454;BME280;39400;49.744;7.012;2023-02-18T10:04:43;96660.28;;;6.97;100.00
33454;BME280;39400;49.744;7.012;2023-02-18T10:07:18;96654.38;;;6.95;100.00
33454;BME280;39400;49.744;7.012;2023-02-18T10:09:46;96648.03;;;6.91;100.00
33454;BME280;39400;49.744;7.012;2023-02-18T10:12:16;96687.44;;;6.90;100.00
33454;BME280;39400;49.744;7.012;2023-02-18T10:14:47;96661.34;;;6.93;100.00
33454;BME280;39400;49.744;7.012;2023-02-18T10:17:15;96645.47;;;6.98;100.00
33454;BME280;39400;49.744;7.012;2023-02-18T10:19:43;96647.75;;;6.96;100.00
33454;BME280;39400;49.744;7.012;2023-02-18T10:22:11;96667.06;;;6.87;100.00
33454;BME280;39400;49.744;7.012;2023-02-18T10:24:52;96660.13;;;6.90;100.00
33454;BME280;39400;49.744;7.012;2023-02-18T10:27:26;96663.28;;;6.92;100.00
33454;BME280;39400;49.744;7.012;2023-02-18T10:29:55;96655.53;;;6.94;100.00
33454;BME280;39400;49.744;7.012;2023-02-18T10:32:27;96644.13;;;6.92;100.00
33454;BME280;39400;49.744;7.012;2023-02-18T10:34:59;96667.63;;;6.93;100.00
33454;BME280;39400;49.744;7.012;2023-02-18T10:37:42;96657.28;;;7.02;100.00
33454;BME280;39400;49.744;7.012;2023-02-18T10:45:27;96654.13;;;7.00;100.00
33454;BME280;39400;49.744;7.012;2023-02-18T10:48:14;96641.59;;;6.99;100.00
33454;BME280;39400;49.744;7.012;2023-02-18T10:50:45;96653.84;;;7.05;100.00
33454;BME280;39400;49.744;7.012;2023-02-18T10:53:15;96655.78;;;7.05;100.00
33454;BME280;39400;49.744;7.012;2023-02-18T10:55:44;96666.56;;;6.98;100.00
33454;BME280;39400;49.744;7.012;2023-02-18T10:58:30;96638.59;;;7.04;100.00
33454;BME280;39400;49.744;7.012;2023-02-18T11:00:56;96659.78;;;7.07;100.00
33454;BME280;39400;49.744;7.012;2023-02-18T11:03:25;96649.97;;;7.06;100.00
33454;BME280;39400;49.744;7.012;2023-02-18T11:05:55;96683.75;;;6.98;100.00
33454;BME280;39400;49.744;7.012;2023-02-18T11:08:30;96662.06;;;7.05;100.00
33454;BME280;39400;49.744;7.012;2023-02-18T11:11:08;96662.31;;;7.00;100.00
33454;BME280;39400;49.744;7.012;2023-02-18T11:13:39;96654.22;;;7.04;100.00
33454;BME280;39400;49.744;7.012;2023-02-18T11:16:06;96646.44;;;7.06;100.00
33454;BME280;39400;49.744;7.012;2023-02-18T11:18:37;96641.34;;;7.04;100.00
33454;BME280;39400;49.744;7.012;2023-02-18T11:21:25;96637.03;;;7.03;100.00
33454;BME280;39400;49.744;7.012;2023-02-18T11:23:52;96627.66;;;7.04;100.00
33454;BME280;39400;49.744;7.012;2023-02-18T11:26:26;96631.97;;;7.05;100.00
33454;BME280;39400;49.744;7.012;2023-02-18T11:28:59;96627.56;;;7.01;100.00
33454;BME280;39400;49.744;7.012;2023-02-18T11:31:35;96620.63;;;7.03;100.00
33454;BME280;39400;49.744;7.012;2023-02-18T11:34:03;96642.28;;;6.96;100.00
33454;BME280;39400;49.744;7.012;2023-02-18T11:36:30;96631.09;;;7.01;100.00
33454;BME280;39400;49.744;7.012;2023-02-18T11:39:05;96626.78;;;7.00;100.00
33454;BME280;39400;49.744;7.012;2023-02-18T11:41:41;96635.94;;;6.92;100.00
33454;BME280;39400;49.744;7.012;2023-02-18T11:44:30;96645.00;;;6.96;100.00
33454;BME280;39400;49.744;7.012;2023-02-18T11:49:28;96620.41;;;6.96;100.00
33454;BME280;39400;49.744;7.012;2023-02-18T11:55:06;96639.56;;;6.96;100.00
33454;BME280;39400;49.744;7.012;2023-02-18T11:57:34;96637.56;;;6.93;100.00
33454;BME280;39400;49.744;7.012;2023-02-18T12:00:02;96646.88;;;6.92;100.00
33454;BME280;39400;49.744;7.012;2023-02-18T12:02:36;96620.63;;;7.03;100.00
33454;BME280;39400;49.744;7.012;2023-02-18T12:05:10;96607.66;;;7.00;100.00
33454;BME280;39400;49.744;7.012;2023-02-18T12:10:35;96625.28;;;6.87;100.00
33454;BME280;39400;49.744;7.012;2023-02-18T12:13:16;96635.06;;;6.88;100.00
33454;BME280;39400;49.744;7.012;2023-02-18T12:18:34;96602.25;;;6.88;100.00
33454;BME280;39400;49.744;7.012;2023-02-18T12:21:22;96593.06;;;6.96;100.00
33454;BME280;39400;49.744;7.012;2023-02-18T12:24:16;96584.63;;;7.01;100.00
33454;BME280;39400;49.744;7.012;2023-02-18T12:27:13;96580.72;;;7.02;100.00
33454;BME280;39400;49.744;7.012;2023-02-18T12:35:59;96577.28;;;7.05;100.00
33454;BME280;39400;49.744;7.012;2023-02-18T12:38:53;96576.13;;;7.06;100.00
33454;BME280;39400;49.744;7.012;2023-02-18T12:46:49;96569.78;;;7.02;100.00
33454;BME280;39400;49.744;7.012;2023-02-18T12:58:29;96587.81;;;7.03;100.00
33454;BME280;39400;49.744;7.012;2023-02-18T13:12:13;96598.66;;;7.00;100.00
33454;BME280;39400;49.744;7.012;2023-02-18T13:15:04;96565.72;;;7.12;100.00
33454;BME280;39400;49.744;7.012;2023-02-18T13:17:36;96573.13;;;7.11;100.00
33454;BME280;39400;49.744;7.012;2023-02-18T13:20:33;96578.59;;;7.11;100.00
33454;BME280;39400;49.744;7.012;2023-02-18T13:23:01;96551.97;;;7.08;100.00
33454;BME280;39400;49.744;7.012;2023-02-18T13:25:28;96564.47;;;7.09;100.00
33454;BME280;39400;49.744;7.012;2023-02-18T13:28:22;96562.19;;;7.11;100.00
33454;BME280;39400;49.744;7.012;2023-02-18T13:33:34;96567.44;;;7.01;100.00
33454;BME280;39400;49.744;7.012;2023-02-18T13:39:08;96547.50;;;7.00;100.00
33454;BME280;39400;49.744;7.012;2023-02-18T13:41:39;96543.31;;;7.06;100.00
33454;BME280;39400;49.744;7.012;2023-02-18T13:46:55;96532.47;;;7.10;100.00
33454;BME280;39400;49.744;7.012;2023-02-18T13:49:23;96533.28;;;7.10;100.00
33454;BME280;39400;49.744;7.012;2023-02-18T13:51:56;96517.75;;;7.14;100.00
33454;BME280;39400;49.744;7.012;2023-02-18T13:54:29;96529.38;;;7.11;100.00
33454;BME280;39400;49.744;7.012;2023-02-18T13:57:01;96523.91;;;7.11;100.00
33454;BME280;39400;49.744;7.012;2023-02-18T13:59:34;96530.78;;;7.21;100.00
33454;BME280;39400;49.744;7.012;2023-02-18T14:09:59;96535.16;;;7.26;100.00
33454;BME280;39400;49.744;7.012;2023-02-18T14:12:41;96535.00;;;7.19;100.00
33454;BME280;39400;49.744;7.012;2023-02-18T14:17:48;96521.22;;;7.31;100.00
33454;BME280;39400;49.744;7.012;2023-02-18T14:22:50;96531.19;;;7.23;100.00
33454;BME280;39400;49.744;7.012;2023-02-18T14:27:44;96524.06;;;7.19;100.00
33454;BME280;39400;49.744;7.012;2023-02-18T14:30:25;96519.59;;;7.10;100.00
33454;BME280;39400;49.744;7.012;2023-02-18T14:32:57;96533.44;;;7.18;100.00
33454;BME280;39400;49.744;7.012;2023-02-18T14:35:34;96526.81;;;7.19;100.00
33454;BME280;39400;49.744;7.012;2023-02-18T14:52:34;96552.41;;;7.10;100.00
33454;BME280;39400;49.744;7.012;2023-02-18T14:55:05;96549.69;;;7.10;100.00
33454;BME280;39400;49.744;7.012;2023-02-18T14:57:38;96536.44;;;7.12;100.00
33454;BME280;39400;49.744;7.012;2023-02-18T15:00:25;96543.31;;;7.06;100.00
33454;BME280;39400;49.744;7.012;2023-02-18T15:02:53;96541.91;;;7.12;100.00
33454;BME280;39400;49.744;7.012;2023-02-18T15:05:24;96535.56;;;7.08;100.00
33454;BME280;39400;49.744;7.012;2023-02-18T15:08:13;96541.59;;;6.98;100.00
33454;BME280;39400;49.744;7.012;2023-02-18T15:10:42;96544.44;;;6.86;100.00
33454;BME280;39400;49.744;7.012;2023-02-18T15:13:16;96568.13;;;6.82;100.00
33454;BME280;39400;49.744;7.012;2023-02-18T15:15:44;96563.81;;;6.81;100.00
33454;BME280;39400;49.744;7.012;2023-02-18T15:18:33;96544.25;;;6.79;100.00
33454;BME280;39400;49.744;7.012;2023-02-18T15:21:01;96562.25;;;6.80;100.00
33454;BME280;39400;49.744;7.012;2023-02-18T15:23:28;96556.78;;;6.80;100.00